Time;durP1;ratioP1;P1;durP2;ratioP2;P2;SDS_P1;SDS_P2;PMS_P1;PMS_P2;Temp;Humidity;BMP_temperature;BMP_pressure;BME280_temperature;BME280_humidity;BME280_pressure;Samples;Min_cycle;Max_cycle;Signal;HPM_P1;HPM_P2
2022/07/19 00:01:36;;;;;;;10.63;7.30;;;15.30;99.90;;;;;;5071577;28;20036;-42
2022/07/19 00:04:02;;;;;;;10.88;7.78;;;16.20;99.90;;;;;;5071173;28;20040;-42
2022/07/19 00:06:27;;;;;;;6.90;4.95;;;15.00;99.90;;;;;;5070586;28;20494;-42
2022/07/19 00:08:53;;;;;;;10.73;5.55;;;15.30;99.90;;;;;;5070889;28;20130;-42
2022/07/19 00:11:19;;;;;;;10.57;5.88;;;15.30;99.90;;;;;;5068571;28;20343;-42
2022/07/19 00:13:45;;;;;;;7.15;5.07;;;15.70;99.90;;;;;;5071006;28;20043;-42
2022/07/19 00:16:10;;;;;;;11.15;5.40;;;15.10;99.90;;;;;;5070459;28;20521;-42
2022/07/19 00:18:37;;;;;;;9.90;5.80;;;15.10;99.90;;;;;;5070787;28;20568;-42
2022/07/19 00:21:03;;;;;;;9.23;5.25;;;15.00;99.90;;;;;;5070819;28;20127;-42
2022/07/19 00:23:29;;;;;;;8.05;5.47;;;15.00;99.90;;;;;;5070354;28;20402;-42
2022/07/19 00:25:55;;;;;;;9.88;5.30;;;15.30;99.90;;;;;;5070692;28;20059;-42
2022/07/19 00:28:20;;;;;;;9.93;5.57;;;15.20;99.90;;;;;;5070803;28;20052;-42
2022/07/19 00:30:46;;;;;;;8.40;5.43;;;15.00;99.90;;;;;;5070556;28;20036;-42
2022/07/19 00:33:11;;;;;;;6.78;5.10;;;14.90;99.90;;;;;;5070543;28;20055;-42
2022/07/19 00:35:38;;;;;;;6.80;4.72;;;15.10;99.90;;;;;;5070425;28;20032;-42
2022/07/19 00:38:08;;;;;;;7.80;5.78;;;15.30;99.90;;;;;;5070562;28;20052;-43
2022/07/19 00:40:34;;;;;;;7.93;5.20;;;14.80;99.90;;;;;;5069960;28;20044;-42
2022/07/19 00:43:00;;;;;;;6.15;5.00;;;14.80;99.90;;;;;;5070551;28;20075;-42
2022/07/19 00:45:26;;;;;;;7.05;5.55;;;15.00;99.90;;;;;;5070066;28;20885;-42
2022/07/19 00:47:52;;;;;;;8.60;5.65;;;14.70;99.90;;;;;;5070051;28;20060;-42
2022/07/19 00:50:19;;;;;;;7.82;5.60;;;15.00;99.90;;;;;;5069938;28;20124;-43
2022/07/19 00:52:48;;;;;;;5.95;5.25;;;14.70;99.90;;;;;;5069024;28;20086;-41
2022/07/19 00:55:16;;;;;;;10.57;6.40;;;15.40;99.90;;;;;;5070167;28;20563;-42
2022/07/19 00:57:43;;;;;;;6.85;5.35;;;14.50;99.90;;;;;;5069922;28;20036;-42
2022/07/19 01:00:09;;;;;;;9.27;5.40;;;;;;;;;;5070432;28;20368;-44
2022/07/19 01:02:37;;;;;;;6.25;5.28;;;;;;;;;;5069816;28;20043;-41
2022/07/19 01:05:03;;;;;;;6.65;5.25;;;;;;;;;;5070017;28;20565;-43
2022/07/19 01:07:29;;;;;;;7.88;6.30;;;;;;;;;;5069644;28;20049;-42
2022/07/19 01:09:55;;;;;;;9.00;6.00;;;;;;;;;;5069834;28;20402;-42
2022/07/19 01:12:23;;;;;;;9.18;5.85;;;;;;;;;;5070059;28;20099;-43
2022/07/19 01:14:49;;;;;;;9.27;5.97;;;;;;;;;;5070244;28;20040;-41
2022/07/19 01:17:16;;;;;;;6.32;4.55;;;;;;;;;;5069768;28;20052;-41
2022/07/19 01:19:43;;;;;;;6.70;5.10;;;;;;;;;;5069484;28;20493;-42
2022/07/19 01:22:09;;;;;;;6.32;4.57;;;;;;;;;;5069829;28;20045;-43
2022/07/19 01:24:35;;;;;;;6.72;4.82;;;;;;;;;;5069089;28;20516;-42
2022/07/19 01:27:01;;;;;;;8.05;5.25;;;;;;;;;;5069652;28;20059;-43
2022/07/19 01:29:27;;;;;;;6.13;4.88;;;;;;;;;;5069588;28;20048;-42
2022/07/19 01:31:53;;;;;;;7.35;5.70;;;;;;;;;;5069690;28;20044;-42
2022/07/19 01:34:19;;;;;;;6.28;5.10;;;;;;;;;;5069421;28;20051;-44
2022/07/19 01:36:45;;;;;;;7.82;5.30;;;;;;;;;;5069367;28;20123;-42
2022/07/19 01:39:11;;;;;;;4.63;3.80;;;;;;;;;;5069275;28;20071;-42
2022/07/19 01:41:37;;;;;;;6.18;4.63;;;14.20;99.90;;;;;;5068894;28;20040;-42
2022/07/19 01:44:02;;;;;;;6.43;5.35;;;14.60;99.90;;;;;;5069046;28;20082;-43
2022/07/19 01:46:28;;;;;;;5.20;4.35;;;14.20;99.90;;;;;;5069451;28;20055;-43
2022/07/19 01:48:54;;;;;;;7.00;4.68;;;14.60;99.90;;;;;;5069456;28;20051;-42
2022/07/19 01:51:19;;;;;;;7.60;5.70;;;14.10;99.90;;;;;;5069396;28;20044;-41
2022/07/19 01:53:45;;;;;;;7.25;5.25;;;14.50;99.90;;;;;;5069104;28;20041;-43
2022/07/19 01:56:11;;;;;;;7.80;5.60;;;13.90;99.90;;;;;;5069114;28;20094;-41
2022/07/19 01:58:36;;;;;;;8.00;5.63;;;14.20;99.90;;;;;;5069090;28;20051;-42
2022/07/19 02:01:03;;;;;;;9.05;5.45;;;14.30;99.90;;;;;;5069132;28;20075;-43
2022/07/19 02:03:29;;;;;;;7.40;5.97;;;13.90;99.90;;;;;;5068260;28;20048;-42
2022/07/19 02:05:55;;;;;;;10.68;7.95;;;13.90;99.90;;;;;;5069413;28;20456;-43
2022/07/19 02:08:20;;;;;;;16.40;7.22;;;13.90;99.90;;;;;;5068956;28;20055;-41
2022/07/19 02:10:46;;;;;;;14.07;8.25;;;14.40;99.90;;;;;;5068317;28;20471;-43
2022/07/19 02:13:12;;;;;;;13.18;8.38;;;13.90;99.90;;;;;;5067287;28;20074;-41
2022/07/19 02:15:38;;;;;;;9.43;7.35;;;13.90;99.90;;;;;;5068335;28;20033;-42
2022/07/19 02:18:04;;;;;;;9.13;6.53;;;14.40;99.90;;;;;;5068938;28;20075;-43
2022/07/19 02:20:30;;;;;;;10.95;8.50;;;14.00;99.90;;;;;;5068644;28;20044;-43
2022/07/19 02:22:56;;;;;;;6.82;6.00;;;14.30;99.90;;;;;;5068558;28;20113;-42
2022/07/19 02:25:22;;;;;;;8.70;7.22;;;14.00;99.90;;;;;;5068683;28;20072;-42
2022/07/19 02:27:48;;;;;;;10.57;6.35;;;13.90;99.90;;;;;;5068340;28;20439;-42
2022/07/19 02:30:14;;;;;;;7.45;5.88;;;14.00;99.90;;;;;;5068599;28;20040;-42
2022/07/19 02:32:40;;;;;;;8.82;5.65;;;14.20;99.90;;;;;;5067817;28;20049;-42
2022/07/19 02:35:07;;;;;;;7.68;6.32;;;14.10;99.90;;;;;;5068084;28;20051;-43
2022/07/19 02:37:33;;;;;;;8.40;5.28;;;13.70;99.90;;;;;;5067982;28;20065;-43
2022/07/19 02:39:59;;;;;;;7.63;5.28;;;13.70;99.90;;;;;;5068068;28;20033;-42
2022/07/19 02:42:24;;;;;;;6.95;5.38;;;13.80;99.90;;;;;;5067815;28;20049;-41
2022/07/19 02:44:50;;;;;;;8.27;5.22;;;13.60;99.90;;;;;;5068069;28;20037;-43
2022/07/19 02:47:16;;;;;;;7.30;5.00;;;13.60;99.90;;;;;;5068198;28;20492;-43
2022/07/19 02:49:41;;;;;;;6.45;5.68;;;13.50;99.90;;;;;;5067905;28;20076;-42
2022/07/19 02:52:07;;;;;;;7.15;5.95;;;14.00;99.90;;;;;;5067992;28;20070;-42
2022/07/19 02:54:33;;;;;;;10.93;8.20;;;13.50;99.90;;;;;;5067214;28;20048;-42
2022/07/19 02:56:58;;;;;;;11.02;7.45;;;13.40;99.90;;;;;;5066084;28;20127;-42
2022/07/19 02:59:24;;;;;;;8.25;6.50;;;13.80;99.90;;;;;;5067707;28;20082;-42
2022/07/19 03:01:50;;;;;;;8.13;6.50;;;13.50;99.90;;;;;;5067638;28;20789;-43
2022/07/19 03:04:15;;;;;;;10.85;6.70;;;13.50;99.90;;;;;;5067690;28;20385;-42
2022/07/19 03:06:41;;;;;;;10.32;6.13;;;13.80;99.90;;;;;;5067612;28;20466;-42
2022/07/19 03:09:06;;;;;;;8.65;6.25;;;13.80;99.90;;;;;;5067615;28;20055;-43
2022/07/19 03:11:32;;;;;;;10.73;6.22;;;13.50;99.90;;;;;;5066922;28;20124;-42
2022/07/19 03:13:58;;;;;;;12.18;7.13;;;13.40;99.90;;;;;;5067264;28;20128;-42
2022/07/19 03:16:24;;;;;;;8.35;6.55;;;13.80;99.90;;;;;;5066822;28;20144;-42
2022/07/19 03:18:49;;;;;;;9.80;6.00;;;13.80;99.90;;;;;;5067761;28;20055;-42
2022/07/19 03:21:15;;;;;;;8.65;7.07;;;14.10;99.90;;;;;;5067936;28;20044;-42
2022/07/19 03:23:40;;;;;;;12.80;7.20;;;13.90;99.90;;;;;;5067653;28;20067;-42
2022/07/19 03:26:06;;;;;;;11.32;9.45;;;13.40;99.90;;;;;;5067776;28;20045;-42
2022/07/19 03:28:33;;;;;;;15.65;10.75;;;13.50;99.90;;;;;;5067908;28;20040;-44
2022/07/19 03:30:59;;;;;;;14.13;10.77;;;14.40;99.90;;;;;;5068237;28;20044;-42
2022/07/19 03:33:24;;;;;;;21.63;10.85;;;14.10;99.90;;;;;;5067692;28;20076;-42
2022/07/19 03:35:50;;;;;;;11.77;9.55;;;14.20;99.90;;;;;;5068101;28;20043;-42
2022/07/19 03:38:16;;;;;;;10.68;8.95;;;14.20;99.90;;;;;;5068399;28;20523;-41
2022/07/19 03:40:43;;;;;;;14.80;9.02;;;14.30;99.90;;;;;;5066230;28;20086;-42
2022/07/19 03:43:09;;;;;;;13.50;8.88;;;14.20;99.90;;;;;;5067937;28;20052;-42
2022/07/19 03:45:35;;;;;;;10.27;8.35;;;14.10;99.90;;;;;;5067507;28;20040;-44
2022/07/19 03:48:00;;;;;;;9.32;7.55;;;13.90;99.90;;;;;;5067169;28;20048;-41
2022/07/19 03:50:27;;;;;;;11.23;8.10;;;14.10;99.90;;;;;;5067475;28;20123;-42
2022/07/19 03:52:53;;;;;;;12.13;9.07;;;14.30;99.90;;;;;;5067665;28;20048;-42
2022/07/19 03:55:19;;;;;;;14.32;8.43;;;13.80;99.90;;;;;;5068037;28;20036;-41
2022/07/19 03:57:44;;;;;;;14.82;8.65;;;14.00;99.90;;;;;;5067762;28;20520;-41
2022/07/19 04:00:10;;;;;;;11.68;8.35;;;14.70;99.90;;;;;;5067340;28;20520;-42
2022/07/19 04:02:36;;;;;;;11.95;7.47;;;14.30;99.90;;;;;;5066951;28;20043;-43
2022/07/19 04:05:02;;;;;;;10.25;7.32;;;15.00;99.90;;;;;;5063101;28;20403;-46
2022/07/19 04:07:27;;;;;;;14.13;8.02;;;14.90;99.90;;;;;;5042347;28;20082;-46
2022/07/19 04:09:53;;;;;;;15.50;8.45;;;15.10;99.90;;;;;;5063052;28;20040;-52
2022/07/19 04:12:19;;;;;;;11.57;8.10;;;15.40;99.90;;;;;;5065486;28;20045;-47
2022/07/19 04:14:44;;;;;;;14.88;8.25;;;15.80;99.90;;;;;;5064443;28;20055;-47
2022/07/19 04:17:10;;;;;;;11.60;7.70;;;15.50;99.90;;;;;;5064046;28;20092;-42
2022/07/19 04:19:36;;;;;;;8.93;6.97;;;15.50;99.90;;;;;;5064216;28;20079;-44
2022/07/19 04:22:02;;;;;;;8.90;6.60;;;15.60;99.90;;;;;;5064503;28;20048;-46
2022/07/19 04:24:27;;;;;;;9.63;5.85;;;15.60;99.90;;;;;;5046286;28;20049;-41
2022/07/19 04:26:53;;;;;;;9.88;6.80;;;15.70;99.90;;;;;;5064868;28;20048;-42
2022/07/19 04:29:19;;;;;;;11.05;6.75;;;15.80;99.90;;;;;;5068471;28;20087;-38
2022/07/19 04:31:44;;;;;;;11.02;5.93;;;15.90;99.90;;;;;;5070315;28;20048;-38
2022/07/19 04:34:10;;;;;;;12.35;7.05;;;16.30;99.90;;;;;;5071200;28;20579;-38
2022/07/19 04:36:35;;;;;;;8.90;6.20;;;16.00;99.90;;;;;;5070865;28;20123;-38
2022/07/19 04:39:01;;;;;;;12.65;7.07;;;16.20;99.90;;;;;;5070015;28;20072;-38
2022/07/19 04:41:27;;;;;;;11.02;7.03;;;16.30;99.90;;;;;;5070278;28;20059;-38
2022/07/19 04:43:53;;;;;;;10.65;6.72;;;16.40;99.90;;;;;;5069863;28;20052;-38
2022/07/19 04:46:19;;;;;;;8.35;5.93;;;16.50;99.90;;;;;;5070234;28;20106;-38
2022/07/19 04:48:44;;;;;;;10.15;5.55;;;16.50;99.90;;;;;;5069436;28;20052;-38
2022/07/19 04:51:10;;;;;;;5.90;4.88;;;16.50;99.90;;;;;;5070214;28;20044;-38
2022/07/19 04:53:36;;;;;;;12.95;5.53;;;16.50;99.90;;;;;;5069704;28;20403;-38
2022/07/19 04:56:01;;;;;;;6.03;5.20;;;16.80;99.90;;;;;;5070027;28;20047;-38
2022/07/19 04:58:27;;;;;;;8.93;4.95;;;16.40;99.90;;;;;;5070077;28;20040;-38
2022/07/19 05:00:53;;;;;;;9.02;5.07;;;16.40;99.90;;;;;;5069709;28;20071;-38
2022/07/19 05:03:18;;;;;;;6.80;4.80;;;16.40;99.90;;;;;;5070378;28;20048;-38
2022/07/19 05:05:44;;;;;;;6.80;5.15;;;16.50;99.90;;;;;;5069765;28;20394;-38
2022/07/19 05:08:10;;;;;;;10.23;5.38;;;16.50;99.90;;;;;;5069905;28;20468;-38
2022/07/19 05:10:36;;;;;;;8.93;5.13;;;16.60;99.90;;;;;;5068945;28;20080;-37
2022/07/19 05:13:01;;;;;;;12.20;6.18;;;16.80;99.90;;;;;;5069608;28;20098;-37
2022/07/19 05:15:27;;;;;;;10.93;5.50;;;16.90;99.90;;;;;;5069286;28;20114;-38
2022/07/19 05:17:53;;;;;;;12.38;5.75;;;17.10;99.90;;;;;;5069558;28;20544;-38
2022/07/19 05:20:19;;;;;;;10.73;6.10;;;17.30;99.90;;;;;;5069791;28;20036;-38
2022/07/19 05:22:44;;;;;;;7.88;5.88;;;17.30;99.90;;;;;;5069194;28;20040;-38
2022/07/19 05:25:10;;;;;;;7.63;6.32;;;17.50;99.90;;;;;;5069333;28;20048;-38
2022/07/19 05:27:37;;;;;;;9.50;6.63;;;17.70;99.90;;;;;;5069735;28;20090;-38
2022/07/19 05:30:04;;;;;;;12.40;6.38;;;17.90;99.90;;;;;;5069202;28;20457;-38
2022/07/19 05:32:30;;;;;;;10.70;6.45;;;18.10;99.90;;;;;;5069420;28;20376;-38
2022/07/19 05:34:55;;;;;;;8.75;6.40;;;18.40;99.90;;;;;;5069079;28;20044;-38
2022/07/19 05:37:21;;;;;;;9.98;6.05;;;18.70;99.90;;;;;;5068923;28;20043;-38
2022/07/19 05:39:47;;;;;;;8.25;5.97;;;19.00;99.90;;;;;;5068926;28;20040;-38
2022/07/19 05:42:13;;;;;;;10.98;5.80;;;19.10;99.90;;;;;;5069243;28;20536;-38
2022/07/19 05:44:38;;;;;;;12.45;5.78;;;19.30;99.90;;;;;;5069077;28;20808;-38
2022/07/19 05:47:04;;;;;;;11.65;5.68;;;19.60;99.90;;;;;;5068773;28;20048;-38
2022/07/19 05:49:30;;;;;;;7.63;5.40;;;20.10;99.90;;;;;;5069547;28;20044;-38
2022/07/19 05:51:55;;;;;;;8.45;5.65;;;20.40;99.90;;;;;;5068967;28;20090;-38
2022/07/19 05:54:21;;;;;;;10.85;5.78;;;20.70;99.90;;;;;;5069070;28;20502;-38
2022/07/19 05:56:47;;;;;;;6.70;5.30;;;20.90;99.90;;;;;;5069067;28;20033;-38
2022/07/19 05:59:13;;;;;;;7.90;5.82;;;21.20;99.90;;;;;;5068952;28;20060;-39
2022/07/19 06:01:38;;;;;;;10.82;6.35;;;21.40;99.90;;;;;;5068844;28;20029;-39
2022/07/19 06:04:04;;;;;;;8.07;5.07;;;21.70;99.90;;;;;;5068317;28;20040;-38
2022/07/19 06:06:32;;;;;;;9.30;5.47;;;21.70;94.50;;;;;;5068112;28;20047;-38
2022/07/19 06:08:59;;;;;;;7.28;5.90;;;21.90;93.40;;;;;;5068766;28;20041;-38
2022/07/19 06:11:25;;;;;;;6.68;5.50;;;22.10;93.70;;;;;;5068802;28;20067;-38
2022/07/19 06:13:52;;;;;;;7.43;5.55;;;22.40;94.10;;;;;;5068750;28;20051;-39
2022/07/19 06:16:18;;;;;;;8.25;5.65;;;22.80;93.50;;;;;;5068679;28;20106;-39
2022/07/19 06:18:43;;;;;;;7.75;5.28;;;23.00;93.60;;;;;;5068351;28;20045;-39
2022/07/19 06:21:12;;;;;;;10.52;5.35;;;23.30;93.50;;;;;;5068374;28;20047;-39
2022/07/19 06:23:40;;;;;;;7.65;5.25;;;23.50;92.80;;;;;;5068317;28;20090;-39
2022/07/19 06:26:07;;;;;;;12.95;5.60;;;23.70;91.70;;;;;;5068805;28;20037;-39
2022/07/19 06:28:33;;;;;;;8.05;5.25;;;24.00;90.30;;;;;;5068479;28;20440;-40
2022/07/19 06:30:58;;;;;;;9.07;5.00;;;24.60;89.00;;;;;;5068344;28;20037;-39
2022/07/19 06:33:24;;;;;;;7.05;5.10;;;25.50;86.40;;;;;;5067958;28;20110;-39
2022/07/19 06:35:50;;;;;;;6.60;4.78;;;27.10;82.60;;;;;;5068287;28;20053;-39
2022/07/19 06:38:16;;;;;;;8.23;5.28;;;28.70;77.90;;;;;;5068363;28;20043;-39
2022/07/19 06:40:42;;;;;;;6.95;4.82;;;29.90;72.80;;;;;;5068318;28;20123;-39
2022/07/19 06:43:08;;;;;;;9.55;4.70;;;31.00;69.30;;;;;;5068070;28;20068;-40
2022/07/19 06:45:34;;;;;;;6.55;4.53;;;31.80;64.90;;;;;;5068327;28;20056;-41
2022/07/19 06:48:00;;;;;;;6.25;4.93;;;32.50;64.00;;;;;;5068170;28;20047;-40
2022/07/19 06:50:26;;;;;;;7.55;4.57;;;33.00;61.90;;;;;;5067511;28;20040;-40
2022/07/19 06:52:51;;;;;;;8.18;4.07;;;33.50;61.80;;;;;;5067610;28;20130;-41
2022/07/19 06:55:17;;;;;;;7.65;4.60;;;34.20;60.20;;;;;;5067906;28;20036;-40
2022/07/19 06:57:43;;;;;;;9.07;4.35;;;35.10;59.00;;;;;;5068196;28;20052;-42
2022/07/19 07:00:09;;;;;;;8.63;4.30;;;35.60;57.60;;;;;;5067672;28;20036;-39
2022/07/19 07:02:39;;;;;;;7.20;4.15;;;36.10;54.90;;;;;;5067647;28;20079;-41
2022/07/19 07:05:07;;;;;;;7.63;3.47;;;36.40;52.90;;;;;;5067706;28;20072;-40
2022/07/19 07:07:33;;;;;;;4.78;3.50;;;36.60;54.00;;;;;;5067876;28;20045;-40
2022/07/19 07:10:01;;;;;;;5.28;3.80;;;37.10;53.60;;;;;;5067710;28;20036;-40
2022/07/19 07:12:27;;;;;;;5.38;3.13;;;37.60;62.60;;;;;;5067926;28;20044;-40
2022/07/19 07:14:53;;;;;;;5.03;3.38;;;;;;;;;;5067747;28;20083;-40
2022/07/19 07:17:20;;;;;;;6.40;3.20;;;38.50;50.70;;;;;;5067583;28;20476;-40
2022/07/19 07:19:46;;;;;;;6.32;3.15;;;38.80;49.00;;;;;;5067595;28;20405;-41
2022/07/19 07:22:11;;;;;;;4.80;3.17;;;39.30;47.60;;;;;;5067465;28;20036;-40
2022/07/19 07:24:37;;;;;;;14.05;3.20;;;39.80;46.90;;;;;;5068045;28;20040;-41
2022/07/19 07:27:03;;;;;;;6.97;3.05;;;40.30;47.50;;;;;;5067419;28;20540;-40
2022/07/19 07:29:29;;;;;;;6.65;2.90;;;40.50;45.80;;;;;;5067521;28;20048;-42
2022/07/19 07:31:54;;;;;;;4.10;2.75;;;40.90;45.70;;;;;;5067179;28;20468;-43
2022/07/19 07:34:20;;;;;;;7.82;2.90;;;41.40;45.00;;;;;;5066893;28;20089;-42
2022/07/19 07:36:46;;;;;;;4.57;2.47;;;41.50;44.20;;;;;;5067479;28;20127;-42
2022/07/19 07:39:13;;;;;;;6.63;3.10;;;41.50;44.30;;;;;;5066003;28;20043;-42
2022/07/19 07:41:39;;;;;;;6.10;3.08;;;41.40;43.40;;;;;;5067590;28;20048;-41
2022/07/19 07:44:05;;;;;;;8.10;3.22;;;41.00;43.70;;;;;;5067217;28;20048;-43
2022/07/19 07:46:31;;;;;;;5.15;2.58;;;40.90;44.40;;;;;;5067295;28;20041;-41
2022/07/19 07:48:57;;;;;;;7.15;2.50;;;41.10;44.00;;;;;;5067337;28;20421;-41
2022/07/19 07:51:23;;;;;;;4.22;2.15;;;41.40;44.40;;;;;;5066481;28;20071;-41
2022/07/19 07:53:49;;;;;;;6.75;2.53;;;41.60;44.20;;;;;;5067070;28;20052;-42
2022/07/19 07:56:15;;;;;;;6.53;2.33;;;42.20;43.20;;;;;;5066682;28;20045;-42
2022/07/19 07:58:40;;;;;;;3.55;2.25;;;42.50;43.20;;;;;;5067553;28;20039;-41
2022/07/19 08:01:06;;;;;;;5.10;2.38;;;43.00;43.70;;;;;;5068162;28;20052;-43
2022/07/19 08:03:32;;;;;;;5.70;1.88;;;43.20;42.00;;;;;;5071365;28;20037;-41
2022/07/19 08:05:58;;;;;;;3.83;2.03;;;43.70;41.20;;;;;;5070998;28;20095;-42
2022/07/19 08:08:26;;;;;;;4.50;2.45;;;44.00;41.20;;;;;;5070889;28;20078;-41
2022/07/19 08:10:55;;;;;;;4.22;2.22;;;44.10;40.30;;;;;;5070942;28;20049;-42
2022/07/19 08:13:22;;;;;;;4.45;2.20;;;44.10;39.70;;;;;;5070746;28;20190;-42
2022/07/19 08:15:48;;;;;;;3.25;2.13;;;44.00;40.80;;;;;;5070840;28;20049;-42
2022/07/19 08:18:14;;;;;;;4.13;2.15;;;43.80;40.60;;;;;;5070882;28;20047;-41
2022/07/19 08:20:40;;;;;;;5.55;1.90;;;43.90;41.10;;;;;;5070138;28;20041;-43
2022/07/19 08:23:05;;;;;;;5.47;2.20;;;44.10;42.30;;;;;;5070310;28;20044;-42
2022/07/19 08:25:32;;;;;;;4.38;2.38;;;44.60;41.80;;;;;;5071028;28;20040;-39
2022/07/19 08:27:58;;;;;;;4.68;2.10;;;45.00;40.70;;;;;;5069497;28;20055;-42
2022/07/19 08:30:24;;;;;;;5.35;1.85;;;45.40;39.70;;;;;;5070788;28;20541;-40
2022/07/19 08:32:49;;;;;;;6.30;2.08;;;45.80;39.10;;;;;;5070698;28;20498;-42
2022/07/19 08:35:15;;;;;;;3.38;1.60;;;45.90;38.50;;;;;;5063272;28;20052;-40
2022/07/19 08:37:41;;;;;;;2.90;1.45;;;46.10;39.70;;;;;;5087859;28;20112;-41
2022/07/19 08:40:07;;;;;;;5.05;1.42;;;46.50;39.20;;;;;;5088052;28;20097;-43
2022/07/19 08:42:33;;;;;;;3.17;1.40;;;46.70;39.20;;;;;;5087356;28;20489;-42
2022/07/19 08:45:05;;;;;;;4.82;1.88;;;47.00;39.70;;;;;;5087980;28;20065;-41
2022/07/19 08:47:31;;;;;;;2.72;1.52;;;47.30;39.60;;;;;;5088676;28;20464;-42
2022/07/19 08:49:59;;;;;;;3.65;1.58;;;47.50;38.40;;;;;;5088771;28;20070;-42
2022/07/19 08:52:25;;;;;;;4.30;1.73;;;47.80;38.70;;;;;;5087450;28;20055;-40
2022/07/19 08:54:51;;;;;;;4.70;1.65;;;47.90;37.80;;;;;;5087158;28;20044;-42
2022/07/19 09:00:01;;;;;;;4.25;1.70;;;48.00;38.50;;;;;;5088212;28;20505;-42
2022/07/19 09:02:27;;;;;;;4.10;1.20;;;48.40;38.40;;;;;;5087565;28;20048;-43
2022/07/19 09:05:08;;;;;;;5.50;1.35;;;48.70;37.40;;;;;;5087866;28;20937;-43
2022/07/19 09:07:38;;;;;;;4.25;1.42;;;49.20;38.10;;;;;;5087854;28;20415;-43
2022/07/19 09:10:17;;;;;;;4.95;1.48;;;49.30;36.40;;;;;;5087458;28;20532;-42
2022/07/19 09:13:04;;;;;;;5.32;1.15;;;49.20;36.80;;;;;;5086459;28;20143;-42
2022/07/19 09:15:45;;;;;;;2.10;1.00;;;48.80;36.40;;;;;;5086954;28;20374;-42
2022/07/19 09:18:10;;;;;;;3.35;1.02;;;48.80;37.30;;;;;;5087376;28;20367;-44
2022/07/19 09:20:37;;;;;;;4.28;1.08;;;48.80;36.40;;;;;;5087962;28;20056;-43
2022/07/19 09:23:04;;;;;;;5.05;1.35;;;48.90;36.90;;;;;;5087206;28;20497;-43
2022/07/19 09:25:40;;;;;;;6.32;1.40;;;48.90;35.80;;;;;;5087094;28;20051;-42
2022/07/19 09:28:07;;;;;;;4.32;1.10;;;48.80;35.40;;;;;;5087556;28;20074;-42
2022/07/19 09:30:39;;;;;;;2.88;1.10;;;48.70;37.40;;;;;;5087012;28;20119;-44
2022/07/19 09:33:19;;;;;;;5.88;1.20;;;48.80;35.80;;;;;;5086907;28;20054;-43
2022/07/19 09:35:52;;;;;;;4.90;1.23;;;48.80;35.60;;;;;;5067618;28;20055;-42
2022/07/19 09:38:25;;;;;;;3.42;1.08;;;48.50;36.30;;;;;;5086777;28;20040;-42
2022/07/19 09:41:09;;;;;;;2.97;1.10;;;48.60;36.10;;;;;;5086812;28;20101;-42
2022/07/19 09:43:50;;;;;;;3.97;1.20;;;48.70;35.80;;;;;;5086912;28;20086;-42
2022/07/19 09:46:36;;;;;;;2.63;1.00;;;48.70;36.20;;;;;;5087185;28;20389;-43
2022/07/19 09:49:22;;;;;;;5.82;1.10;;;48.70;35.10;;;;;;5086789;28;20595;-43
2022/07/19 09:51:53;;;;;;;5.50;0.90;;;48.60;35.40;;;;;;5068192;28;20064;-43
2022/07/19 09:54:21;;;;;;;5.75;0.95;;;48.60;35.50;;;;;;5086344;28;20063;-43
2022/07/19 09:56:49;;;;;;;5.30;0.88;;;48.60;34.90;;;;;;5086173;28;20044;-49
2022/07/19 09:59:16;;;;;;;5.47;0.95;;;48.50;35.90;;;;;;5085786;28;20040;-49
2022/07/19 10:01:42;;;;;;;4.50;0.80;;;48.30;35.10;;;;;;5085069;28;20043;-48
2022/07/19 10:04:11;;;;;;;7.35;1.05;;;48.30;34.50;;;;;;5085476;28;20044;-52
2022/07/19 10:06:39;;;;;;;3.73;1.03;;;48.50;33.20;;;;;;5084281;28;20128;-51
2022/07/19 10:09:06;;;;;;;4.00;0.75;;;48.40;34.10;;;;;;5085595;28;20281;-49
2022/07/19 10:11:33;;;;;;;5.07;1.00;;;48.40;33.80;;;;;;5084875;28;20122;-50
2022/07/19 10:13:59;;;;;;;6.63;0.80;;;48.50;33.30;;;;;;5066346;28;20383;-49
2022/07/19 10:16:54;;;;;;;4.50;0.90;;;48.80;35.00;;;;;;5084525;28;20052;-48
2022/07/19 10:19:47;;;;;;;4.00;0.80;;;48.60;34.80;;;;;;5084979;28;20036;-48
2022/07/19 10:22:24;;;;;;;3.38;0.90;;;48.60;34.20;;;;;;5084711;28;20579;-52
2022/07/19 10:24:55;;;;;;;3.55;0.90;;;48.60;33.30;;;;;;5084214;28;20445;-49
2022/07/19 10:27:24;;;;;;;4.88;0.57;;;48.60;33.50;;;;;;5084026;28;20105;-49
2022/07/19 10:30:10;;;;;;;5.43;0.73;;;48.50;33.20;;;;;;5084668;28;20406;-49
2022/07/19 10:32:41;;;;;;;3.50;0.68;;;48.60;33.20;;;;;;5083982;28;20040;-48
2022/07/19 10:35:20;;;;;;;4.22;0.43;;;49.00;34.30;;;;;;5065704;28;20538;-49
2022/07/19 10:37:48;;;;;;;2.63;0.60;;;49.20;33.00;;;;;;5084635;28;20048;-48
2022/07/19 10:40:40;;;;;;;6.13;0.70;;;49.30;32.10;;;;;;5085083;28;20055;-48
2022/07/19 10:43:08;;;;;;;1.75;0.50;;;49.20;32.00;;;;;;5087356;28;20044;-48
2022/07/19 10:45:35;;;;;;;3.08;0.70;;;49.30;41.30;;;;;;5086954;28;20059;-49
2022/07/19 10:48:10;;;;;;;3.22;0.68;;;48.60;30.90;;;;;;5087028;28;20047;-47
2022/07/19 10:50:45;;;;;;;2.70;0.77;;;48.30;32.10;;;;;;5087482;28;20035;-48
2022/07/19 10:53:10;;;;;;;2.58;0.70;;;48.20;32.60;;;;;;5087079;28;20505;-48
2022/07/19 10:55:36;;;;;;;2.47;0.57;;;47.70;32.00;;;;;;5087144;28;20036;-48
2022/07/19 10:58:05;;;;;;;2.25;0.60;;;46.90;31.40;;;;;;5087686;28;20389;-47
2022/07/19 11:00:32;;;;;;;4.93;0.70;;;45.20;32.90;;;;;;5087407;28;20040;-48
2022/07/19 11:03:20;;;;;;;3.13;0.60;;;43.60;33.90;;;;;;5087547;28;20043;-48
2022/07/19 11:05:51;;;;;;;2.28;0.60;;;42.30;35.90;;;;;;5088002;28;20046;-47
2022/07/19 11:08:17;;;;;;;2.67;0.60;;;41.20;36.10;;;;;;5087884;28;20039;-47
2022/07/19 11:10:43;;;;;;;2.65;0.90;;;40.20;36.00;;;;;;5087932;28;20048;-47
2022/07/19 11:13:09;;;;;;;5.35;1.23;;;39.40;36.50;;;;;;5087224;28;20829;-50
2022/07/19 11:15:35;;;;;;;3.40;0.90;;;38.80;37.70;;;;;;5086990;28;20127;-48
2022/07/19 11:18:06;;;;;;;8.77;0.98;;;38.40;39.60;;;;;;5069252;28;20047;-47
2022/07/19 11:20:36;;;;;;;1.83;0.63;;;37.90;39.90;;;;;;5087125;28;20047;-47
2022/07/19 11:23:04;;;;;;;2.40;0.77;;;37.50;39.90;;;;;;5087598;28;20082;-48
2022/07/19 11:25:32;;;;;;;3.42;0.77;;;37.10;39.30;;;;;;5087291;28;20075;-46
2022/07/19 11:28:00;;;;;;;2.63;0.70;;;36.70;40.60;;;;;;5087433;28;20634;-46
2022/07/19 11:30:27;;;;;;;4.90;0.77;;;36.40;41.40;;;;;;5087289;28;20043;-47
2022/07/19 11:32:56;;;;;;;3.03;1.00;;;36.10;40.10;;;;;;5087302;28;20409;-46
2022/07/19 11:35:22;;;;;;;2.20;0.63;;;36.00;41.20;;;;;;5088127;28;20039;-46
2022/07/19 11:37:47;;;;;;;3.55;0.77;;;35.90;41.50;;;;;;5093985;28;20391;-47
2022/07/19 11:40:13;;;;;;;2.50;0.43;;;35.80;41.80;;;;;;5094261;28;20032;-48
2022/07/19 11:42:42;;;;;;;2.83;0.55;;;35.80;42.00;;;;;;5093525;28;20036;-48
2022/07/19 11:45:13;;;;;;;5.93;0.77;;;35.80;40.60;;;;;;5093501;28;20393;-47
2022/07/19 11:47:50;;;;;;;3.60;0.60;;;35.70;40.70;;;;;;5075537;28;20071;-48
2022/07/19 11:50:18;;;;;;;3.53;0.80;;;35.70;40.60;;;;;;5094109;28;20042;-46
2022/07/19 11:52:49;;;;;;;2.70;0.82;;;35.60;39.70;;;;;;5093640;28;20043;-47
2022/07/19 11:55:18;;;;;;;1.90;0.90;;;35.50;40.10;;;;;;5093981;28;20373;-47
2022/07/19 11:57:44;;;;;;;4.53;0.63;;;35.30;40.80;;;;;;5093948;28;20044;-47
2022/07/19 12:00:11;;;;;;;2.03;0.85;;;35.10;40.40;;;;;;5093823;28;20036;-48
2022/07/19 12:02:58;;;;;;;2.35;0.80;;;35.00;40.90;;;;;;5093406;28;20044;-48
2022/07/19 12:05:27;;;;;;;5.22;0.88;;;34.90;41.70;;;;;;5093649;28;20436;-47
2022/07/19 12:07:56;;;;;;;8.05;1.25;;;34.80;41.80;;;;;;5093692;28;20043;-48
2022/07/19 12:10:45;;;;;;;3.45;0.80;;;34.80;42.80;;;;;;5092756;28;20048;-48
2022/07/19 12:13:15;;;;;;;4.72;0.85;;;34.70;41.80;;;;;;5093455;28;20389;-47
2022/07/19 12:16:08;;;;;;;3.97;0.52;;;34.70;42.70;;;;;;5093518;28;20319;-48
2022/07/19 12:18:47;;;;;;;3.47;0.73;;;34.60;42.50;;;;;;5093260;28;20050;-47
2022/07/19 12:21:23;;;;;;;4.10;0.77;;;34.70;43.40;;;;;;5093943;28;20039;-47
2022/07/19 12:24:12;;;;;;;6.78;0.80;;;34.60;42.10;;;;;;5075016;28;20051;-47
2022/07/19 12:26:41;;;;;;;3.08;0.57;;;34.60;41.30;;;;;;5093435;28;20132;-48
2022/07/19 12:29:19;;;;;;;5.70;0.70;;;34.60;41.10;;;;;;5093443;28;20154;-48
2022/07/19 12:31:46;;;;;;;3.55;0.60;;;34.60;42.80;;;;;;5092955;28;20485;-50
2022/07/19 12:34:17;;;;;;;4.10;0.50;;;34.60;41.40;;;;;;5093594;28;20069;-46
2022/07/19 12:36:43;;;;;;;3.40;0.80;;;34.60;40.60;;;;;;5093884;28;20040;-48
2022/07/19 12:39:29;;;;;;;5.13;0.60;;;34.50;42.10;;;;;;5093122;28;20493;-48
2022/07/19 12:41:58;;;;;;;4.03;0.60;;;34.50;41.60;;;;;;5093396;28;20048;-48
2022/07/19 12:44:23;;;;;;;3.38;0.60;;;34.50;40.90;;;;;;5093736;28;20036;-47
2022/07/19 12:46:49;;;;;;;4.57;0.80;;;34.50;41.00;;;;;;5093103;28;20089;-47
2022/07/19 12:49:15;;;;;;;1.63;0.70;;;34.50;40.70;;;;;;5090173;28;20036;-47
2022/07/19 12:51:43;;;;;;;3.13;0.50;;;34.50;42.10;;;;;;5090140;28;20047;-49
2022/07/19 12:54:13;;;;;;;3.60;0.38;;;34.50;42.40;;;;;;5033490;28;20056;-46
2022/07/19 12:56:39;;;;;;;4.10;0.43;;;34.50;41.30;;;;;;5041499;28;20051;-47